Terminal Aerodrome Forecast
Issued by NWS

Home | Current Version | Previous Version | Text Only | Print | Product List | Glossary On
Versions: 1 2 3 4 5 6 7 8 9 10 11 12 13 14 15 16
000
FTUS43 KJKL 242320
TAFSME
TAF
KSME 242320Z 2500/2524 VRB06KT P6SM FEW250
     FM251500 20009G20KT 5SM -TSRA BKN050CB BKN100
     FM251900 20010G20KT 2SM TSRA BKN020CB BKN100
     FM252100 21009KT P6SM VCTS BKN050CB=

USA.gov is the U.S. government's official web portal to all federal, state and local government web resources and services.